Calwood, Missouri
Current Conditions -  °F | °C
As of 7:20 AM on Saturday 25 Oct 2014 (Local Time) from KCOU Reporting Station
Haze Haze  
Wind Chill: 58°   Ceiling: Unl
Heat Index: 58°   Visibility: 2mi
Dew Point: 58°   Wind: 5mph
Humidity: 100%   Direction: 280°W
Pressure: 30.04"   Gusts: NA
Location:  38.8555°N, 91.9568°W
Report Text: KCOU 251220Z 28004KT 2SM BR FEW010 14/14 A3004 RMK AO2 T01440144 $
Loading
Personal Weather Stations






























Interactive Weather Map
Tropical Storm Tracking
New forecast layout! Learn more

10-Day Weather Forecast

Advertisements
Track Severe Weather on mobile